Terminal Aerodrome Forecast
Issued by NWS Wakefield, VA

Home | Current Version | Previous Version | Text Only | Print | Product List | Glossary On
Versions: 1 2 3 4 5 6 7 8 9
000
FTUS41 KAKQ 281700
TAFSBY
TAF
KSBY 281739Z 2818/2918 23010KT P6SM SCT040 OVC100
     FM282200 30008KT P6SM -RA OVC040
     FM290400 36006KT 3SM -RA BR OVC015
     FM291000 02006KT 5SM -RA BR OVC025=

USA.gov is the U.S. government's official web portal to all federal, state and local government web resources and services.